Time;durP1;ratioP1;P1;durP2;ratioP2;P2;SDS_P1;SDS_P2;PMS_P1;PMS_P2;Temp;Humidity;BMP_temperature;BMP_pressure;BME280_temperature;BME280_humidity;BME280_pressure;Samples;Min_cycle;Max_cycle;Signal;HPM_P1;HPM_P2
2022/06/27 00:00:30;;;;;;;3.00;2.22;;;;;;;;;;5078521;28;20279;-56
2022/06/27 00:02:57;;;;;;;3.22;2.30;;;;;;;;;;5078432;28;20259;-56
2022/06/27 00:05:25;;;;;;;3.20;2.47;;;;;;;;;;5078171;28;20295;-56
2022/06/27 00:07:53;;;;;;;2.40;2.20;;;;;;;;;;5078359;28;20208;-56
2022/06/27 00:10:20;;;;;;;2.10;2.00;;;;;;;;;;5078559;28;20599;-56
2022/06/27 00:12:49;;;;;;;2.65;2.08;;;;;;;;;;5078492;28;20448;-56
2022/06/27 00:15:17;;;;;;;2.08;1.98;;;;;;;;;;5077776;28;20228;-56
2022/06/27 00:17:44;;;;;;;3.25;1.90;;;;;;;;;;5073829;28;20621;-56
2022/06/27 00:20:12;;;;;;;3.92;1.90;;;;;;;;;;5058151;28;20308;-56
2022/06/27 00:22:40;;;;;;;2.67;1.92;;;;;;;;;;5058550;28;20204;-56
2022/06/27 00:25:08;;;;;;;3.15;2.15;;;;;;;;;;5057356;28;20235;-56
2022/06/27 00:27:35;;;;;;;3.05;2.28;;;;;;;;;;5058001;28;20236;-56
2022/06/27 00:30:05;;;;;;;2.42;2.22;;;;;;;;;;5057660;28;20244;-56
2022/06/27 00:32:33;;;;;;;2.60;2.40;;;;;;;;;;5058460;28;20212;-56
2022/06/27 00:35:00;;;;;;;2.63;2.42;;;;;;;;;;5057704;28;20209;-56
2022/06/27 00:37:27;;;;;;;4.93;2.50;;;;;;;;;;5058089;28;20242;-56
2022/06/27 00:39:55;;;;;;;2.83;2.63;;;;;;;;;;5057966;28;20270;-57
2022/06/27 00:42:23;;;;;;;3.17;2.58;;;;;;;;;;5057886;28;20240;-56
2022/06/27 00:44:50;;;;;;;4.00;2.50;;;;;;;;;;5058452;28;20209;-56
2022/06/27 00:47:20;;;;;;;3.45;2.47;;;;;;;;;;5057966;28;20584;-56
2022/06/27 00:49:48;;;;;;;2.97;2.38;;;;;;;;;;5065808;28;20188;-56
2022/06/27 00:52:15;;;;;;;2.55;2.35;;;;;;;;;;5078151;28;20239;-56
2022/06/27 00:54:44;;;;;;;3.60;2.40;;;;;;;;;;5078395;28;20277;-56
2022/06/27 00:57:13;;;;;;;3.88;2.47;;;;;;;;;;5079985;28;20236;-57
2022/06/27 00:59:41;;;;;;;3.20;2.60;;;;;;;;;;5081808;28;20251;-56
2022/06/27 01:02:08;;;;;;;3.10;2.60;;;;;;;;;;5081756;28;20260;-56
2022/06/27 01:04:38;;;;;;;4.07;2.53;;;;;;;;;;5081983;28;20205;-56
2022/06/27 01:07:06;;;;;;;4.00;2.47;;;;;;;;;;5081664;28;20212;-56
2022/06/27 01:09:33;;;;;;;2.97;2.28;;;;;;;;;;5081754;28;20671;-56
2022/06/27 01:12:01;;;;;;;3.42;2.70;;;;;;;;;;5081686;28;20294;-57
2022/06/27 01:14:29;;;;;;;6.00;3.13;;;;;;;;;;5081420;28;20232;-56
2022/06/27 01:16:57;;;;;;;4.38;2.58;;;;;;;;;;5080988;28;20213;-56
2022/06/27 01:19:24;;;;;;;3.92;2.80;;;;;;;;;;5080716;28;20205;-56
2022/06/27 01:21:54;;;;;;;3.08;2.65;;;;;;;;;;5081851;28;20560;-56
2022/06/27 01:24:24;;;;;;;4.65;2.58;;;;;;;;;;5081326;28;20239;-56
2022/06/27 01:26:52;;;;;;;4.43;2.70;;;;;;;;;;5081237;28;20205;-56
2022/06/27 01:29:20;;;;;;;5.43;2.80;;;;;;;;;;5081396;28;20212;-56
2022/06/27 01:31:47;;;;;;;2.92;2.67;;;;;;;;;;5081356;28;20294;-56
2022/06/27 01:34:15;;;;;;;3.92;2.70;;;;;;;;;;5081801;28;20607;-56
2022/06/27 01:36:43;;;;;;;3.95;2.78;;;;;;;;;;5081764;28;20240;-56
2022/06/27 01:39:10;;;;;;;3.85;2.85;;;;;;;;;;5081237;28;20205;-56
2022/06/27 01:41:40;;;;;;;3.35;2.60;;;;;;;;;;5080614;28;20315;-56
2022/06/27 01:44:08;;;;;;;5.55;2.58;;;;;;;;;;5080848;28;20523;-56
2022/06/27 01:46:43;;;;;;;4.90;2.53;;;;;;;;;;5081265;28;20903;-56
2022/06/27 01:49:11;;;;;;;3.67;2.85;;;;;;;;;;5081071;28;20204;-56
2022/06/27 01:51:39;;;;;;;3.70;2.85;;;;;;;;;;5065138;28;20220;-56
2022/06/27 01:54:07;;;;;;;3.55;2.65;;;;;;;;;;5061083;28;20301;-56
2022/06/27 01:56:35;;;;;;;5.13;2.75;;;;;;;;;;5061200;28;20237;-56
2022/06/27 01:59:04;;;;;;;3.25;2.67;;;;;;;;;;5060651;28;20212;-56
2022/06/27 02:01:32;;;;;;;5.93;2.67;;;;;;;;;;5060432;28;20650;-56
2022/06/27 02:04:00;;;;;;;3.75;2.70;;;;;;;;;;5060928;28;20245;-56
2022/06/27 02:06:30;;;;;;;3.55;3.00;;;;;;;;;;5076183;28;20201;-56
2022/06/27 02:08:58;;;;;;;4.95;2.97;;;;;;;;;;5079168;28;20208;-56
2022/06/27 02:11:26;;;;;;;3.20;3.00;;;;;;;;;;5080364;28;20580;-56
2022/06/27 02:13:54;;;;;;;5.28;3.00;;;;;;;;;;5080246;28;20251;-56
2022/06/27 02:16:23;;;;;;;4.82;2.92;;;;;;;;;;5080793;28;20215;-56
2022/06/27 02:18:51;;;;;;;3.65;3.35;;;;;;;;;;5080303;28;20662;-56
2022/06/27 02:21:20;;;;;;;5.68;3.20;;;;;;;;;;5080704;28;20615;-56
2022/06/27 02:23:48;;;;;;;5.22;3.30;;;;;;;;;;5080522;28;20321;-56
2022/06/27 02:26:16;;;;;;;3.80;3.00;;;;;;;;;;5080115;28;20583;-57
2022/06/27 02:28:44;;;;;;;7.57;3.28;;;;;;;;;;5080223;28;20650;-56
2022/06/27 02:31:13;;;;;;;5.35;3.38;;;;;;;;;;5079790;28;20301;-56
2022/06/27 02:33:43;;;;;;;3.53;3.00;;;;;;;;;;5079994;28;20207;-56
2022/06/27 02:36:14;;;;;;;5.38;3.28;;;;;;;;;;5080041;28;20212;-56
2022/06/27 02:38:42;;;;;;;4.30;3.28;;;;;;;;;;5080287;28;20211;-56
2022/06/27 02:41:11;;;;;;;4.45;3.50;;;;;;;;;;5080290;28;20621;-56
2022/06/27 02:43:40;;;;;;;5.78;3.70;;;;;;;;;;5079334;28;20247;-56
2022/06/27 02:46:08;;;;;;;3.53;3.33;;;;;;;;;;5080478;28;20536;-56
2022/06/27 02:48:37;;;;;;;3.97;3.60;;;;;;;;;;5079744;28;20247;-56
2022/06/27 02:51:11;;;;;;;4.07;3.67;;;;;;;;;;5079984;28;20302;-56
2022/06/27 02:53:42;;;;;;;3.85;3.55;;;;;;;;;;5079842;28;20204;-56
2022/06/27 02:56:11;;;;;;;4.45;3.53;;;;;;;;;;5079616;28;20641;-56
2022/06/27 02:58:43;;;;;;;4.38;3.40;;;;;;;;;;5079395;28;20251;-56
2022/06/27 03:01:12;;;;;;;5.43;3.65;;;;;;;;;;5078893;28;20196;-56
2022/06/27 03:03:42;;;;;;;4.50;3.80;;;;;;;;;;5078989;28;20201;-56
2022/06/27 03:06:12;;;;;;;3.72;3.40;;;;;;;;;;5079191;28;20215;-56
2022/06/27 03:08:40;;;;;;;3.95;3.53;;;;;;;;;;5078842;28;20240;-56
2022/06/27 03:11:08;;;;;;;5.00;3.40;;;;;;;;;;5079301;28;20545;-56
2022/06/27 03:13:36;;;;;;;4.80;3.85;;;;;;;;;;5079328;28;20208;-56
2022/06/27 03:16:03;;;;;;;5.80;3.70;;;;;;;;;;5075275;28;20317;-56
2022/06/27 03:18:31;;;;;;;3.97;3.63;;;;;;;;;;5078790;28;20617;-56
2022/06/27 03:20:59;;;;;;;4.25;3.50;;;;;;;;;;5078227;28;20208;-56
2022/06/27 03:23:28;;;;;;;5.50;3.63;;;;;;;;;;5078776;28;20323;-56
2022/06/27 03:25:56;;;;;;;3.90;3.50;;;;;;;;;;5078818;28;20278;-56
2022/06/27 03:28:24;;;;;;;5.25;4.13;;;;;;;;;;5068205;28;20262;-56
2022/06/27 03:30:52;;;;;;;4.22;3.92;;;;;;;;;;5059198;28;20576;-56
2022/06/27 03:33:19;;;;;;;4.07;3.67;;;;;;;;;;5058758;28;20239;-56
2022/06/27 03:35:47;;;;;;;5.97;3.95;;;;;;;;;;5058636;28;20205;-56
2022/06/27 03:38:14;;;;;;;4.07;3.80;;;;;;;;;;5058383;28;20236;-56
2022/06/27 03:40:43;;;;;;;4.32;3.88;;;;;;;;;;5058257;28;20252;-56
2022/06/27 03:43:11;;;;;;;3.80;3.50;;;;;;;;;;5057958;28;20320;-56
2022/06/27 03:45:38;;;;;;;6.15;4.13;;;;;;;;;;5057841;28;20201;-56
2022/06/27 03:48:06;;;;;;;5.38;4.10;;;;;;;;;;5058592;28;20240;-56
2022/06/27 03:50:33;;;;;;;4.53;4.10;;;;;;;;;;5058623;28;20244;-56
2022/06/27 03:53:01;;;;;;;4.40;4.10;;;;;;;;;;5058687;28;20197;-56
2022/06/27 03:55:29;;;;;;;4.45;4.05;;;;;;;;;;5064392;28;20261;-56
2022/06/27 03:58:00;;;;;;;5.00;4.45;;;;;;;;;;5078180;28;20262;-56
2022/06/27 04:00:31;;;;;;;5.15;4.20;;;;;;;;;;5078254;28;20209;-56
2022/06/27 04:02:59;;;;;;;5.10;4.03;;;;;;;;;;5077757;28;20359;-57
2022/06/27 04:05:27;;;;;;;4.03;3.80;;;;;;;;;;5078198;28;20591;-56
2022/06/27 04:07:54;;;;;;;4.45;4.05;;;;;;;;;;5078006;28;20243;-57
2022/06/27 04:10:21;;;;;;;5.43;4.00;;;;;;;;;;5078063;28;20254;-57
2022/06/27 04:12:49;;;;;;;4.35;4.05;;;;;;;;;;5077892;28;20236;-56
2022/06/27 04:15:18;;;;;;;4.90;4.40;;;;;;;;;;5077434;28;20263;-56
2022/06/27 04:17:46;;;;;;;5.38;4.32;;;;;;;;;;5077009;28;20273;-56
2022/06/27 04:20:13;;;;;;;4.75;4.35;;;;;;;;;;5077714;28;20248;-56
2022/06/27 04:22:41;;;;;;;4.53;4.10;;;;;;;;;;5077186;28;20224;-56
2022/06/27 04:25:09;;;;;;;4.30;3.97;;;;;;;;;;5076891;28;20231;-56
2022/06/27 04:27:36;;;;;;;4.72;4.32;;;;;;;;;;5076739;28;20257;-56
2022/06/27 04:30:04;;;;;;;4.72;4.03;;;;;;;;;;5077612;28;20211;-56
2022/06/27 04:32:33;;;;;;;4.70;4.30;;;;;;;;;;5076113;28;20630;-56
2022/06/27 04:35:01;;;;;;;4.32;4.03;;;;;;;;;;5076899;28;20721;-56
2022/06/27 04:37:29;;;;;;;5.13;4.63;;;;;;;;;;5076626;28;20295;-56
2022/06/27 04:39:56;;;;;;;4.93;4.53;;;;;;;;;;5076574;28;20273;-56
2022/06/27 04:42:24;;;;;;;5.10;4.70;;;;;;;;;;5076486;28;20228;-56
2022/06/27 04:44:51;;;;;;;6.03;5.53;;;;;;;;;;5075788;28;20689;-56
2022/06/27 04:47:19;;;;;;;5.18;4.78;;;;;;;;;;5076761;28;20565;-56
2022/06/27 04:49:48;;;;;;;5.63;4.60;;;;;;;;;;5075384;28;20599;-56
2022/06/27 04:52:16;;;;;;;5.15;4.80;;;;;;;;;;5075147;28;20477;-56
2022/06/27 04:54:44;;;;;;;5.38;4.95;;;;;;;;;;5075189;28;20303;-56
2022/06/27 04:57:12;;;;;;;4.40;4.10;;;;;;;;;;5076284;28;20567;-56
2022/06/27 04:59:40;;;;;;;5.53;5.13;;;;;;;;;;5075251;28;20204;-56
2022/06/27 05:02:08;;;;;;;4.90;4.60;;;;;;;;;;5074845;28;20224;-56
2022/06/27 05:04:36;;;;;;;5.22;4.80;;;;;;;;;;5075001;28;20557;-56
2022/06/27 05:07:05;;;;;;;5.38;4.97;;;;;;;;;;5074403;28;20236;-56
2022/06/27 05:09:32;;;;;;;5.57;5.10;;;;;;;;;;5075359;28;20297;-56
2022/06/27 05:12:00;;;;;;;5.00;4.70;;;;;;;;;;5075250;28;20232;-56
2022/06/27 05:14:27;;;;;;;5.60;5.10;;;;;;;;;;5074232;28;20634;-56
2022/06/27 05:16:57;;;;;;;6.32;5.68;;;;;;;;;;5060373;28;20604;-56
2022/06/27 05:19:25;;;;;;;5.45;5.07;;;;;;;;;;5054155;28;20201;-56
2022/06/27 05:21:52;;;;;;;5.57;5.10;;;;;;;;;;5054322;28;20201;-57
2022/06/27 05:24:21;;;;;;;5.70;5.25;;;;;;;;;;5054664;28;20255;-56
2022/06/27 05:26:48;;;;;;;6.25;5.80;;;;;;;;;;5053776;28;20240;-56
2022/06/27 05:29:16;;;;;;;5.95;5.43;;;;;;;;;;5054105;28;20574;-57
2022/06/27 05:31:44;;;;;;;6.38;5.80;;;;;;;;;;5054473;28;20897;-57
2022/06/27 05:34:11;;;;;;;5.88;5.43;;;;;;;;;;5055260;28;20300;-57
2022/06/27 05:36:38;;;;;;;6.10;5.72;;;;;;;;;;5055571;28;20205;-56
2022/06/27 05:39:06;;;;;;;6.32;5.80;;;;;;;;;;5055432;28;20489;-56
2022/06/27 05:41:36;;;;;;;6.70;6.10;;;;;;;;;;5055374;28;20201;-56
2022/06/27 05:44:04;;;;;;;6.45;5.85;;;;;;;;;;5058156;28;20268;-57
2022/06/27 05:46:32;;;;;;;5.63;5.22;;;;;;;;;;5056816;28;20236;-57
2022/06/27 05:49:01;;;;;;;6.13;5.72;;;;;;;;;;5057833;28;20213;-56
2022/06/27 05:51:29;;;;;;;6.22;5.82;;;;;;;;;;5057833;28;20205;-56
2022/06/27 05:53:57;;;;;;;6.13;5.63;;;;;;;;;;5057093;28;20258;-56
2022/06/27 05:56:25;;;;;;;6.07;5.68;;;;;;;;;;5056782;28;20304;-56
2022/06/27 05:58:55;;;;;;;6.50;5.95;;;;;;;;;;5057315;28;20741;-56
2022/06/27 06:01:25;;;;;;;6.85;6.30;;;;;;;;;;5068185;28;20204;-56
2022/06/27 06:03:54;;;;;;;7.63;6.82;;;;;;;;;;5077820;28;20602;-56
2022/06/27 06:06:21;;;;;;;7.68;6.68;;;;;;;;;;5077732;28;20235;-56
2022/06/27 06:08:50;;;;;;;6.90;6.40;;;;;;;;;;5077912;28;20298;-56
2022/06/27 06:11:17;;;;;;;6.88;6.38;;;;;;;;;;5077881;28;20216;-56
2022/06/27 06:13:45;;;;;;;7.28;6.68;;;;;;;;;;5077726;28;20780;-56
2022/06/27 06:16:16;;;;;;;7.10;6.53;;;;;;;;;;5077035;28;20240;-56
2022/06/27 06:18:44;;;;;;;7.30;6.70;;;;;;;;;;5077096;28;20207;-56
2022/06/27 06:21:12;;;;;;;7.20;6.65;;;;;;;;;;5077663;28;20263;-56
2022/06/27 06:23:39;;;;;;;7.90;6.80;;;;;;;;;;5077520;28;20634;-56
2022/06/27 06:26:07;;;;;;;7.63;7.03;;;;;;;;;;5077846;28;20274;-56
2022/06/27 06:28:35;;;;;;;7.75;7.05;;;;;;;;;;5078074;28;20208;-56
2022/06/27 06:31:03;;;;;;;7.88;7.28;;;;;;;;;;5077710;28;20212;-57
2022/06/27 06:33:32;;;;;;;7.20;6.50;;;;;;;;;;5077683;28;20270;-56
2022/06/27 06:36:00;;;;;;;7.35;6.78;;;;;;;;;;5077708;28;20673;-56
2022/06/27 06:38:27;;;;;;;7.47;6.32;;;;;;;;;;5078405;28;20204;-57
2022/06/27 06:40:55;;;;;;;6.93;6.32;;;;;;;;;;5078223;28;20208;-57
2022/06/27 06:43:22;;;;;;;7.20;6.60;;;;;;;;;;5077060;28;20687;-56
2022/06/27 06:45:50;;;;;;;7.00;6.50;;;;;;;;;;5076715;28;20303;-56
2022/06/27 06:48:17;;;;;;;7.03;6.43;;;;;;;;;;5076634;28;20208;-56
2022/06/27 06:50:46;;;;;;;7.10;6.60;;;;;;;;;;5076977;28;20208;-56
2022/06/27 06:53:14;;;;;;;7.20;6.50;;;;;;;;;;5075549;28;20230;-56
2022/06/27 06:55:42;;;;;;;7.05;6.50;;;;;;;;;;5076430;28;20488;-56
2022/06/27 06:58:10;;;;;;;7.15;6.35;;;;;;;;;;5077330;28;20583;-57
2022/06/27 07:00:38;;;;;;;6.00;5.60;;;;;;;;;;5076639;28;20226;-57
2022/06/27 07:03:06;;;;;;;6.93;6.32;;;;;;;;;;5076135;28;20327;-56
2022/06/27 07:05:34;;;;;;;6.50;6.03;;;;;;;;;;5076514;28;20717;-56
2022/06/27 07:08:02;;;;;;;6.78;6.28;;;;;;;;;;5077022;28;20202;-56
2022/06/27 07:10:30;;;;;;;6.70;6.10;;;;;;;;;;5076098;28;20204;-56
2022/06/27 07:12:58;;;;;;;6.40;6.00;;;;;;;;;;5076952;28;20262;-57
2022/06/27 07:15:25;;;;;;;6.10;5.70;;;;;;;;;;5075925;28;20232;-56
2022/06/27 07:17:53;;;;;;;6.53;6.03;;;;;;;;;;5075087;28;20197;-56
2022/06/27 07:20:22;;;;;;;6.20;5.80;;;;;;;;;;5073305;28;20236;-57
2022/06/27 07:22:50;;;;;;;6.45;6.05;;;;;;;;;;5075775;28;20294;-57
2022/06/27 07:25:19;;;;;;;6.47;5.90;;;;;;;;;;5077145;28;20295;-56
2022/06/27 07:27:47;;;;;;;6.45;5.82;;;;;;;;;;5076306;28;20212;-56
2022/06/27 07:30:15;;;;;;;6.35;5.80;;;;;;;;;;5075956;28;20197;-56
2022/06/27 07:32:44;;;;;;;7.03;6.28;;;;;;;;;;5075958;28;20307;-57
2022/06/27 07:35:12;;;;;;;6.57;6.07;;;;;;;;;;5075971;28;20207;-57
2022/06/27 07:37:47;;;;;;;6.80;6.13;;;;;;;;;;5075977;28;20222;-56
2022/06/27 07:40:15;;;;;;;6.35;5.72;;;;;;;;;;5075996;28;20521;-56
2022/06/27 07:42:44;;;;;;;6.65;6.03;;;;;;;;;;5074764;28;20718;-56
2022/06/27 07:45:14;;;;;;;6.15;5.75;;;;;;;;;;5075436;28;20235;-57
2022/06/27 07:47:42;;;;;;;6.72;5.90;;;;;;;;;;5076058;28;20231;-57
2022/06/27 07:50:10;;;;;;;6.15;5.70;;;;;;;;;;5075305;28;20200;-56
2022/06/27 07:55:19;;;;;;;5.75;5.30;;;;;;;;;;5074962;28;20291;-56
2022/06/27 07:57:49;;;;;;;6.57;6.07;;;;;;;;;;5075498;28;20287;-57
2022/06/27 08:00:17;;;;;;;6.13;5.70;;;;;;;;;;5075622;28;20200;-56
2022/06/27 08:02:45;;;;;;;6.47;5.88;;;;;;;;;;5076128;28;20236;-56
2022/06/27 08:05:12;;;;;;;5.90;5.40;;;;;;;;;;5075190;28;20243;-56
2022/06/27 08:07:40;;;;;;;6.20;5.80;;;;;;;;;;5075367;28;20243;-56
2022/06/27 08:10:08;;;;;;;5.90;5.43;;;;;;;;;;5075880;28;20477;-56
2022/06/27 08:12:35;;;;;;;6.10;5.63;;;;;;;;;;5075301;28;20204;-56
2022/06/27 08:15:07;;;;;;;5.95;5.55;;;;;;;;;;5074870;28;20345;-56
2022/06/27 08:17:34;;;;;;;5.78;5.38;;;;;;;;;;5075427;28;20200;-57
2022/06/27 08:20:02;;;;;;;6.20;5.70;;;;;;;;;;5075453;28;20227;-56
2022/06/27 08:22:30;;;;;;;5.72;5.32;;;;;;;;;;5074600;28;20236;-57
2022/06/27 08:24:57;;;;;;;5.90;5.50;;;;;;;;;;5075067;28;20292;-56
2022/06/27 08:27:26;;;;;;;5.70;5.18;;;;;;;;;;5075614;28;20227;-56
2022/06/27 08:29:54;;;;;;;6.30;5.80;;;;;;;;;;5074119;28;20200;-56
2022/06/27 08:32:23;;;;;;;5.75;5.45;;;;;;;;;;5074648;28;20474;-56
2022/06/27 08:34:52;;;;;;;6.20;5.70;;;;;;;;;;5074052;28;20306;-56
2022/06/27 08:37:19;;;;;;;6.35;5.95;;;;;;;;;;5075429;28;20587;-56
2022/06/27 08:39:47;;;;;;;6.05;5.65;;;;;;;;;;5075896;28;20258;-56
2022/06/27 08:42:15;;;;;;;5.68;5.28;;;;;;;;;;5074779;28;20205;-57
2022/06/27 08:44:43;;;;;;;5.97;5.47;;;;;;;;;;5075282;28;20235;-56
2022/06/27 08:47:11;;;;;;;5.63;5.22;;;;;;;;;;5074335;28;20555;-56
2022/06/27 08:49:41;;;;;;;5.60;5.18;;;;;;;;;;5075396;28;20572;-57
2022/06/27 08:52:09;;;;;;;5.28;4.93;;;;;;;;;;5075310;28;20204;-56
2022/06/27 08:54:37;;;;;;;5.60;5.15;;;;;;;;;;5074400;28;20462;-57
2022/06/27 08:57:05;;;;;;;4.88;4.47;;;;;;;;;;5074639;28;20274;-57
2022/06/27 08:59:33;;;;;;;5.07;4.68;;;;;;;;;;5074165;28;20269;-57
2022/06/27 09:02:01;;;;;;;5.00;4.60;;;;;;;;;;5074779;28;20216;-57
2022/06/27 09:04:28;;;;;;;4.82;4.53;;;;;;;;;;5074009;28;20239;-56
2022/06/27 09:06:58;;;;;;;4.68;4.32;;;;;;;;;;5074333;28;20299;-57
2022/06/27 09:09:27;;;;;;;4.75;4.45;;;;;;;;;;5074560;28;20210;-56
2022/06/27 09:11:56;;;;;;;4.70;4.40;;;;;;;;;;5054646;28;20603;-57
2022/06/27 09:14:33;;;;;;;4.20;3.90;;;;;;;;;;5054535;28;20633;-57
2022/06/27 09:17:04;;;;;;;4.07;3.80;;;;;;;;;;5055197;28;20209;-57
2022/06/27 09:19:53;;;;;;;4.22;3.92;;;;;;;;;;5058406;28;20205;-57
2022/06/27 09:22:23;;;;;;;4.30;3.95;;;;;;;;;;5067724;28;20598;-57
2022/06/27 09:25:04;;;;;;;3.85;3.58;;;;;;;;;;5077504;28;20212;-56
2022/06/27 09:27:39;;;;;;;3.88;3.58;;;;;;;;;;5075749;28;20196;-56
2022/06/27 09:30:21;;;;;;;4.00;3.70;;;;;;;;;;5075060;28;20191;-56
2022/06/27 09:32:52;;;;;;;4.15;3.85;;;;;;;;;;5077368;28;20250;-56
2022/06/27 09:35:23;;;;;;;4.20;3.80;;;;;;;;;;5077783;28;20576;-56
2022/06/27 09:37:59;;;;;;;4.30;3.90;;;;;;;;;;5077636;28;20197;-56
2022/06/27 09:40:28;;;;;;;4.20;3.83;;;;;;;;;;5078774;28;20210;-56
2022/06/27 09:42:57;;;;;;;4.30;3.90;;;;;;;;;;5077671;28;20208;-57
2022/06/27 09:45:25;;;;;;;3.90;3.60;;;;;;;;;;5077118;28;20324;-57
2022/06/27 09:47:57;;;;;;;4.00;3.70;;;;;;;;;;5077284;28;20196;-56
2022/06/27 09:50:25;;;;;;;4.38;3.97;;;;;;;;;;5076863;28;20463;-57
2022/06/27 09:52:53;;;;;;;4.03;3.72;;;;;;;;;;5076775;28;20205;-57
2022/06/27 09:55:23;;;;;;;4.47;4.18;;;;;;;;;;5077081;28;20200;-57
2022/06/27 09:57:51;;;;;;;4.38;4.03;;;;;;;;;;5076618;28;20196;-57
2022/06/27 10:00:20;;;;;;;4.70;4.30;;;;;;;;;;5077660;28;20464;-56
2022/06/27 10:02:48;;;;;;;5.20;4.03;;;;;;;;;;5076539;28;20266;-57
2022/06/27 10:05:17;;;;;;;4.47;3.95;;;;;;;;;;5076907;28;20630;-57
2022/06/27 10:07:45;;;;;;;4.65;4.22;;;;;;;;;;5077648;28;20214;-57
2022/06/27 10:10:13;;;;;;;4.50;4.10;;;;;;;;;;5077919;28;20292;-57
2022/06/27 10:12:57;;;;;;;4.50;4.10;;;;;;;;;;5077939;28;20231;-56
2022/06/27 10:15:29;;;;;;;4.45;4.15;;;;;;;;;;5077164;28;20243;-57
2022/06/27 10:17:58;;;;;;;4.60;4.30;;;;;;;;;;5076913;28;20200;-57
2022/06/27 10:20:36;;;;;;;4.72;4.35;;;;;;;;;;5076475;28;20261;-57
2022/06/27 10:23:23;;;;;;;4.63;4.22;;;;;;;;;;5076666;28;20483;-57
2022/06/27 10:25:51;;;;;;;4.50;4.20;;;;;;;;;;5076298;28;20200;-57
2022/06/27 10:28:22;;;;;;;4.90;4.60;;;;;;;;;;5075650;28;20295;-57
2022/06/27 10:30:51;;;;;;;4.72;4.43;;;;;;;;;;5076138;28;20633;-57
2022/06/27 10:33:45;;;;;;;4.53;4.22;;;;;;;;;;5075762;28;20204;-56
2022/06/27 10:36:16;;;;;;;4.60;4.20;;;;;;;;;;5017718;28;20204;-57
2022/06/27 10:38:48;;;;;;;4.85;4.45;;;;;;;;;;5075261;28;20710;-57
2022/06/27 10:41:34;;;;;;;4.20;4.00;;;;;;;;;;5076233;28;20204;-57
2022/06/27 10:44:04;;;;;;;4.65;4.20;;;;;;;;;;5076656;28;20290;-57
2022/06/27 10:46:44;;;;;;;4.50;4.20;;;;;;;;;;5076458;28;20196;-57
2022/06/27 10:49:28;;;;;;;4.68;4.38;;;;;;;;;;5076512;28;20204;-57
2022/06/27 10:52:10;;;;;;;4.82;4.43;;;;;;;;;;5076433;28;20205;-56
2022/06/27 10:54:38;;;;;;;4.55;4.25;;;;;;;;;;5075905;28;20196;-56
2022/06/27 10:57:06;;;;;;;4.82;4.53;;;;;;;;;;5075099;28;20248;-56
2022/06/27 10:59:51;;;;;;;4.82;4.43;;;;;;;;;;5061803;28;20358;-56
2022/06/27 11:02:21;;;;;;;4.90;4.50;;;;;;;;;;5042621;28;20275;-57
2022/06/27 11:04:49;;;;;;;4.45;4.25;;;;;;;;;;5075319;28;20476;-57
2022/06/27 11:07:17;;;;;;;4.25;4.05;;;;;;;;;;5075022;28;20200;-57
2022/06/27 11:09:46;;;;;;;4.38;4.15;;;;;;;;;;5074548;28;20227;-57
2022/06/27 11:12:14;;;;;;;4.38;4.10;;;;;;;;;;5076132;28;20232;-57
2022/06/27 11:14:45;;;;;;;4.55;4.22;;;;;;;;;;5075715;28;20611;-57
2022/06/27 11:17:27;;;;;;;4.65;4.25;;;;;;;;;;5075614;28;20350;-56
2022/06/27 11:20:09;;;;;;;4.40;4.10;;;;;;;;;;5075072;28;20240;-57
2022/06/27 11:22:38;;;;;;;4.40;4.10;;;;;;;;;;5074939;28;20204;-57
2022/06/27 11:25:06;;;;;;;4.75;4.45;;;;;;;;;;5074869;28;20301;-57
2022/06/27 11:27:47;;;;;;;4.80;4.43;;;;;;;;;;5075872;28;20200;-57
2022/06/27 11:33:16;;;;;;;4.35;3.97;;;;;;;;;;5073863;28;20223;-57
2022/06/27 11:35:43;;;;;;;4.55;4.25;;;;;;;;;;5074891;28;20224;-57
2022/06/27 11:38:13;;;;;;;4.65;4.32;;;;;;;;;;5075222;28;20228;-57
2022/06/27 11:40:40;;;;;;;4.28;3.85;;;;;;;;;;5075015;28;20501;-57
2022/06/27 11:43:08;;;;;;;4.57;4.28;;;;;;;;;;5074989;28;20208;-57
2022/06/27 11:45:42;;;;;;;4.05;3.75;;;;;;;;;;5074926;28;20618;-57
2022/06/27 11:48:14;;;;;;;4.63;4.32;;;;;;;;;;5074191;28;20204;-57
2022/06/27 11:50:42;;;;;;;4.72;4.38;;;;;;;;;;5075460;28;20285;-57
2022/06/27 11:53:10;;;;;;;4.97;4.68;;;;;;;;;;5075345;28;20497;-57
2022/06/27 11:55:39;;;;;;;4.43;4.13;;;;;;;;;;5074471;28;20196;-57
2022/06/27 11:58:07;;;;;;;4.30;4.00;;;;;;;;;;5074782;28;20201;-57
2022/06/27 12:00:35;;;;;;;4.57;4.28;;;;;;;;;;5073872;28;20204;-57
2022/06/27 12:03:04;;;;;;;4.60;4.28;;;;;;;;;;5074668;28;20224;-57
2022/06/27 12:05:31;;;;;;;4.68;4.28;;;;;;;;;;5074804;28;20319;-57
2022/06/27 12:08:05;;;;;;;5.25;4.85;;;;;;;;;;5074393;28;20211;-58
2022/06/27 12:10:44;;;;;;;4.88;4.53;;;;;;;;;;5075715;28;20204;-57
2022/06/27 12:13:12;;;;;;;5.25;4.85;;;;;;;;;;5074551;28;20598;-57
2022/06/27 12:15:40;;;;;;;5.15;4.75;;;;;;;;;;5074048;28;20542;-57
2022/06/27 12:18:09;;;;;;;4.90;4.60;;;;;;;;;;5074290;28;20238;-57
2022/06/27 12:20:37;;;;;;;4.90;4.50;;;;;;;;;;5074209;28;20842;-57
2022/06/27 12:23:04;;;;;;;5.15;4.85;;;;;;;;;;5074431;28;20814;-57
2022/06/27 12:25:35;;;;;;;5.03;4.72;;;;;;;;;;5073609;28;20220;-57
2022/06/27 12:28:05;;;;;;;5.28;4.88;;;;;;;;;;5073774;28;20208;-57
2022/06/27 12:30:35;;;;;;;5.00;4.60;;;;;;;;;;5072760;28;20212;-57
2022/06/27 12:33:02;;;;;;;4.90;4.60;;;;;;;;;;5073644;28;20244;-57
2022/06/27 12:35:30;;;;;;;4.47;4.18;;;;;;;;;;5073213;28;20235;-57
2022/06/27 12:38:00;;;;;;;4.70;4.40;;;;;;;;;;5073692;28;20295;-57
2022/06/27 12:40:27;;;;;;;4.60;4.30;;;;;;;;;;5073835;28;20622;-58
2022/06/27 12:42:55;;;;;;;4.90;4.60;;;;;;;;;;5074376;28;20599;-57
2022/06/27 12:45:24;;;;;;;5.43;4.93;;;;;;;;;;5075093;28;20282;-58
2022/06/27 12:47:52;;;;;;;5.35;5.05;;;;;;;;;;5073014;28;20269;-57
2022/06/27 12:50:19;;;;;;;5.20;4.90;;;;;;;;;;5073199;28;20207;-57
2022/06/27 12:52:48;;;;;;;5.40;5.00;;;;;;;;;;5074666;28;20192;-57
2022/06/27 12:55:15;;;;;;;5.55;5.25;;;;;;;;;;5078263;28;20290;-57
2022/06/27 12:57:43;;;;;;;5.28;4.90;;;;;;;;;;5078047;28;20216;-57
2022/06/27 13:00:11;;;;;;;5.35;5.03;;;;;;;;;;5077437;28;20491;-57
2022/06/27 13:02:40;;;;;;;5.20;4.90;;;;;;;;;;5078007;28;20208;-57
2022/06/27 13:05:09;;;;;;;5.15;4.63;;;;;;;;;;5077001;28;20220;-57
2022/06/27 13:07:37;;;;;;;5.45;5.13;;;;;;;;;;5076436;28;20265;-57
2022/06/27 13:10:04;;;;;;;5.47;5.07;;;;;;;;;;5076367;28;20208;-57
2022/06/27 13:12:32;;;;;;;5.05;4.75;;;;;;;;;;5076924;28;20303;-57
2022/06/27 13:15:00;;;;;;;5.00;4.60;;;;;;;;;;5077213;28;20263;-57
2022/06/27 13:17:28;;;;;;;5.03;4.72;;;;;;;;;;5077955;28;20296;-57
2022/06/27 13:19:57;;;;;;;4.70;4.32;;;;;;;;;;5077583;28;20208;-57
2022/06/27 13:22:24;;;;;;;5.43;4.93;;;;;;;;;;5077300;28;20633;-57
2022/06/27 13:24:52;;;;;;;4.60;4.30;;;;;;;;;;5077179;28;20247;-57
2022/06/27 13:27:19;;;;;;;4.80;4.50;;;;;;;;;;5076545;28;20197;-57
2022/06/27 13:29:47;;;;;;;4.63;4.32;;;;;;;;;;5076889;28;20588;-57
2022/06/27 13:32:14;;;;;;;4.55;4.25;;;;;;;;;;5077932;28;20555;-57
2022/06/27 13:34:43;;;;;;;4.68;4.25;;;;;;;;;;5077564;28;20236;-57
2022/06/27 13:37:12;;;;;;;4.72;4.32;;;;;;;;;;5077110;28;20287;-57
2022/06/27 13:39:40;;;;;;;4.30;4.00;;;;;;;;;;5078035;28;20236;-57
2022/06/27 13:42:08;;;;;;;4.35;4.05;;;;;;;;;;5077590;28;20286;-57
2022/06/27 13:44:36;;;;;;;4.40;4.10;;;;;;;;;;5076544;28;20311;-57
2022/06/27 13:47:04;;;;;;;4.22;4.00;;;;;;;;;;5076429;28;20196;-57
2022/06/27 13:49:32;;;;;;;4.80;4.40;;;;;;;;;;5057477;28;20209;-57
2022/06/27 13:52:00;;;;;;;4.70;4.07;;;;;;;;;;5056615;28;20232;-57
2022/06/27 13:54:29;;;;;;;4.25;3.85;;;;;;;;;;5056384;28;20377;-57
2022/06/27 13:56:57;;;;;;;4.00;3.70;;;;;;;;;;5056221;28;20237;-57
2022/06/27 13:59:24;;;;;;;4.20;3.90;;;;;;;;;;5056622;28;20255;-57
2022/06/27 14:01:52;;;;;;;4.07;3.88;;;;;;;;;;5056407;28;20205;-57
2022/06/27 14:04:19;;;;;;;4.55;3.85;;;;;;;;;;5056594;28;20205;-57
2022/06/27 14:09:33;;;;;;;4.03;3.72;;;;;;;;;;5056275;28;20188;-58
2022/06/27 14:12:01;;;;;;;4.28;3.97;;;;;;;;;;5056546;28;20217;-57
2022/06/27 14:14:29;;;;;;;3.90;3.60;;;;;;;;;;5056994;28;20245;-57
2022/06/27 14:16:56;;;;;;;4.22;3.92;;;;;;;;;;5077081;28;20235;-57
2022/06/27 14:19:24;;;;;;;3.95;3.75;;;;;;;;;;5076702;28;20591;-57
2022/06/27 14:21:52;;;;;;;3.97;3.70;;;;;;;;;;5076312;28;20311;-57
2022/06/27 14:24:19;;;;;;;4.03;3.63;;;;;;;;;;5075965;28;20263;-57
2022/06/27 14:26:48;;;;;;;3.83;3.60;;;;;;;;;;5076098;28;20217;-57
2022/06/27 14:29:16;;;;;;;4.25;3.95;;;;;;;;;;5075932;28;20299;-57
2022/06/27 14:31:43;;;;;;;4.03;3.72;;;;;;;;;;5076185;28;20231;-57
2022/06/27 14:34:11;;;;;;;4.18;3.83;;;;;;;;;;5076100;28;20770;-57
2022/06/27 14:36:38;;;;;;;3.80;3.50;;;;;;;;;;5076369;28;20261;-57
2022/06/27 14:39:06;;;;;;;4.15;3.85;;;;;;;;;;5076253;28;20832;-57
2022/06/27 14:41:34;;;;;;;4.47;3.67;;;;;;;;;;5076971;28;20200;-57
2022/06/27 14:44:02;;;;;;;4.13;3.92;;;;;;;;;;5076744;28;20550;-57
2022/06/27 14:46:30;;;;;;;3.97;3.50;;;;;;;;;;5075949;28;20221;-58
2022/06/27 14:48:58;;;;;;;3.67;3.47;;;;;;;;;;5077165;28;20301;-57
2022/06/27 14:51:26;;;;;;;4.82;3.80;;;;;;;;;;5076290;28;20291;-57
2022/06/27 14:53:53;;;;;;;4.03;3.67;;;;;;;;;;5077039;28;20212;-57
2022/06/27 14:56:21;;;;;;;3.88;3.50;;;;;;;;;;5076774;28;20228;-57
2022/06/27 14:58:48;;;;;;;4.13;3.83;;;;;;;;;;5076149;28;20204;-57
2022/06/27 15:01:17;;;;;;;3.85;3.55;;;;;;;;;;5076485;28;20204;-57